createdAt,value
2022-09-30T00:01:52.973Z,99037.00
2022-09-30T00:04:25.774Z,99044.19
2022-09-30T00:06:55.485Z,99049.34
2022-09-30T00:09:23.881Z,99057.66
2022-09-30T00:11:52.172Z,99060.47
2022-09-30T00:14:23.578Z,99055.41
2022-09-30T00:16:51.911Z,99060.16
2022-09-30T00:19:20.136Z,99058.19
2022-09-30T00:21:49.845Z,99054.38
2022-09-30T00:24:18.370Z,99053.72
2022-09-30T00:26:46.698Z,99065.53
2022-09-30T00:29:15.031Z,99062.13
2022-09-30T00:31:43.449Z,99055.56
2022-09-30T00:34:12.236Z,99063.81
2022-09-30T00:36:44.785Z,99074.47
2022-09-30T00:39:16.601Z,99061.56
2022-09-30T00:41:46.308Z,99069.41
2022-09-30T00:44:46.837Z,99067.50
2022-09-30T00:47:31.566Z,99075.28
2022-09-30T00:50:03.118Z,99079.19
2022-09-30T00:52:33.005Z,99077.09
2022-09-30T00:55:05.836Z,99072.78
2022-09-30T00:57:35.207Z,99070.56
2022-09-30T01:00:07.300Z,99072.03
2022-09-30T01:02:36.546Z,99065.09
2022-09-30T01:05:05.041Z,99072.25
2022-09-30T01:07:33.741Z,99075.44
2022-09-30T01:10:04.212Z,99085.22
2022-09-30T01:12:32.603Z,99086.75
2022-09-30T01:15:01.960Z,99090.41
2022-09-30T01:17:42.282Z,99098.31
2022-09-30T01:20:38.646Z,99106.13
2022-09-30T01:23:33.665Z,99106.63
2022-09-30T01:26:25.051Z,99117.25
2022-09-30T01:29:19.709Z,99103.97
2022-09-30T01:31:58.381Z,99098.91
2022-09-30T01:34:41.528Z,99100.91
2022-09-30T01:37:18.708Z,99098.25
2022-09-30T01:39:53.127Z,99093.19
2022-09-30T01:42:29.196Z,99085.00
2022-09-30T01:45:03.693Z,99086.94
2022-09-30T01:47:36.362Z,99089.69
2022-09-30T01:50:11.470Z,99086.56
2022-09-30T01:52:47.717Z,99094.81
2022-09-30T01:55:22.031Z,99102.63
2022-09-30T01:57:58.514Z,99101.50
2022-09-30T02:00:27.592Z,99104.28
2022-09-30T02:03:02.646Z,99102.31
2022-09-30T02:05:35.942Z,99094.91
2022-09-30T02:08:09.613Z,99092.97
2022-09-30T02:10:44.998Z,99092.19
2022-09-30T02:13:18.856Z,99096.91
2022-09-30T02:15:53.542Z,99095.00
2022-09-30T02:18:29.680Z,99110.59
2022-09-30T02:21:03.996Z,99111.03
2022-09-30T02:23:37.007Z,99104.44
2022-09-30T02:26:10.350Z,99107.59
2022-09-30T02:28:43.681Z,99104.84
2022-09-30T02:31:13.650Z,99103.69
2022-09-30T02:33:50.951Z,99101.38
2022-09-30T02:36:23.863Z,99102.94
2022-09-30T02:39:00.417Z,99093.59
2022-09-30T02:41:29.949Z,99101.47
2022-09-30T02:43:59.317Z,99108.50
2022-09-30T02:46:35.382Z,99110.84
2022-09-30T02:49:12.735Z,99108.94
2022-09-30T02:51:46.430Z,99115.59
2022-09-30T02:54:21.533Z,99117.16
2022-09-30T02:56:56.015Z,99122.97
2022-09-30T02:59:25.506Z,99123.38
2022-09-30T03:01:53.766Z,99116.31
2022-09-30T03:04:27.804Z,99114.41
2022-09-30T03:06:56.591Z,99114.81
2022-09-30T03:09:27.202Z,99120.28
2022-09-30T03:12:02.599Z,99121.47
2022-09-30T03:14:48.347Z,99127.34
2022-09-30T03:17:55.497Z,99125.00
2022-09-30T03:20:38.549Z,99135.94
2022-09-30T03:23:42.157Z,99133.25
2022-09-30T03:26:27.738Z,99127.03
2022-09-30T03:29:07.499Z,99123.88
2022-09-30T03:31:43.444Z,99132.47
2022-09-30T03:34:21.562Z,99136.78
2022-09-30T03:37:04.359Z,99151.22
2022-09-30T03:39:48.977Z,99164.94
2022-09-30T03:42:27.093Z,99170.00
2022-09-30T03:45:03.534Z,99163.72
2022-09-30T03:47:36.058Z,99164.94
2022-09-30T03:50:08.989Z,99155.19
2022-09-30T03:52:38.686Z,99147.00
2022-09-30T03:55:09.644Z,99148.56
2022-09-30T03:57:37.669Z,99144.66
2022-09-30T04:00:07.837Z,99148.59
2022-09-30T04:02:36.821Z,99144.28
2022-09-30T04:05:05.565Z,99145.88
2022-09-30T04:07:36.146Z,99156.38
2022-09-30T04:10:07.230Z,99163.03
2022-09-30T04:12:35.193Z,99147.06
2022-09-30T04:15:03.181Z,99159.53
2022-09-30T04:17:32.660Z,99163.41
2022-09-30T04:20:00.906Z,99161.44
2022-09-30T04:22:28.923Z,99173.56
2022-09-30T04:24:59.300Z,99177.88
2022-09-30T04:27:30.345Z,99177.88
2022-09-30T04:29:58.335Z,99181.78
2022-09-30T04:32:30.232Z,99182.53
2022-09-30T04:34:58.407Z,99190.38
2022-09-30T04:37:26.364Z,99188.41
2022-09-30T04:39:54.352Z,99182.94
2022-09-30T04:42:22.470Z,99182.56
2022-09-30T04:44:51.828Z,99183.72
2022-09-30T04:47:19.790Z,99174.72
2022-09-30T04:49:47.822Z,99171.19
2022-09-30T04:52:15.776Z,99181.69
2022-09-30T04:54:43.775Z,99198.13
2022-09-30T04:57:14.087Z,99203.19
2022-09-30T04:59:42.519Z,99216.47
2022-09-30T05:02:12.951Z,99219.59
2022-09-30T05:04:40.974Z,99232.88
2022-09-30T05:07:09.235Z,99240.69
2022-09-30T05:09:37.320Z,99246.94
2022-09-30T05:12:05.754Z,99242.22
2022-09-30T05:14:34.686Z,99243.81
2022-09-30T05:17:03.159Z,99229.75
2022-09-30T05:19:32.882Z,99246.53
2022-09-30T05:22:01.269Z,99255.16
2022-09-30T05:24:30.213Z,99265.28
2022-09-30T05:26:58.252Z,99271.53
2022-09-30T05:29:26.359Z,99274.22
2022-09-30T05:31:54.655Z,99271.13
2022-09-30T05:34:23.301Z,99256.97
2022-09-30T05:36:53.286Z,99262.09
2022-09-30T05:39:21.291Z,99256.53
2022-09-30T05:41:49.327Z,99263.16
2022-09-30T05:44:17.331Z,99279.59
2022-09-30T05:46:45.459Z,99277.22
2022-09-30T05:49:13.574Z,99271.34
2022-09-30T05:51:41.633Z,99270.94
2022-09-30T05:54:12.982Z,99265.44
2022-09-30T05:56:41.039Z,99261.47
2022-09-30T05:59:09.351Z,99264.56
2022-09-30T06:01:38.924Z,99274.34
2022-09-30T06:04:06.925Z,99279.78
2022-09-30T06:06:35.254Z,99280.53
2022-09-30T06:09:03.703Z,99274.56
2022-09-30T06:11:33.166Z,99272.59
2022-09-30T06:14:01.523Z,99276.09
2022-09-30T06:16:29.581Z,99282.63
2022-09-30T06:18:57.724Z,99279.88
2022-09-30T06:21:29.543Z,99281.84
2022-09-30T06:23:57.733Z,99290.06
2022-09-30T06:26:25.762Z,99299.41
2022-09-30T06:28:56.095Z,99299.28
2022-09-30T06:31:24.224Z,99309.72
2022-09-30T06:33:54.891Z,99321.88
2022-09-30T06:36:22.923Z,99316.69
2022-09-30T06:38:53.117Z,99328.81
2022-09-30T06:41:22.019Z,99333.47
2022-09-30T06:44:04.789Z,99339.69
2022-09-30T06:46:39.592Z,99336.16
2022-09-30T06:49:13.971Z,99331.34
2022-09-30T06:51:42.434Z,99326.56
2022-09-30T06:54:10.750Z,99320.28
2022-09-30T06:56:39.694Z,99316.63
2022-09-30T06:59:08.397Z,99313.41
2022-09-30T07:01:39.102Z,99311.34
2022-09-30T07:04:10.235Z,99317.91
2022-09-30T07:06:39.567Z,99334.19
2022-09-30T07:09:09.062Z,99334.09
2022-09-30T07:11:38.556Z,99336.41
2022-09-30T07:14:06.762Z,99350.53
2022-09-30T07:16:35.512Z,99348.03
2022-09-30T07:19:07.092Z,99351.94
2022-09-30T07:21:35.578Z,99349.06
2022-09-30T07:24:04.434Z,99348.53
2022-09-30T07:26:32.864Z,99357.41
2022-09-30T07:29:01.247Z,99351.72
2022-09-30T07:31:34.586Z,99353.41
2022-09-30T07:34:07.922Z,99359.94
2022-09-30T07:36:37.937Z,99370.22
2022-09-30T07:39:08.733Z,99363.81
2022-09-30T07:41:39.472Z,99363.44
2022-09-30T07:44:12.487Z,99369.03
2022-09-30T07:46:40.728Z,99371.91
2022-09-30T07:49:15.139Z,99376.34
2022-09-30T07:51:45.679Z,99378.16
2022-09-30T07:54:15.764Z,99375.34
2022-09-30T07:57:09.361Z,99371.03
2022-09-30T07:59:35.990Z,99372.50
2022-09-30T08:02:05.412Z,99373.81
2022-09-30T08:04:36.533Z,99376.09
2022-09-30T08:07:06.229Z,99383.91
2022-09-30T08:09:35.081Z,99393.25
2022-09-30T08:12:03.992Z,99390.03
2022-09-30T08:14:32.491Z,99391.13
2022-09-30T08:17:00.908Z,99398.34
2022-09-30T08:19:30.672Z,99404.84
2022-09-30T08:22:00.226Z,99407.31
2022-09-30T08:24:28.489Z,99404.28
2022-09-30T08:26:57.343Z,99396.28
2022-09-30T08:29:49.889Z,99408.63
2022-09-30T08:32:13.565Z,99403.13
2022-09-30T08:34:41.867Z,99397.50
2022-09-30T08:37:11.278Z,99402.09
2022-09-30T08:39:40.038Z,99396.28
2022-09-30T08:42:42.397Z,99392.97
2022-09-30T08:45:22.679Z,99385.78
2022-09-30T08:47:58.251Z,99383.78
2022-09-30T08:50:35.719Z,99387.38
2022-09-30T08:53:10.378Z,99386.66
2022-09-30T08:55:42.455Z,99398.28
2022-09-30T08:58:20.733Z,99399.19
2022-09-30T09:00:51.433Z,99397.22
2022-09-30T09:03:20.814Z,99396.00
2022-09-30T09:05:57.440Z,99396.81
2022-09-30T09:08:34.253Z,99400.81
2022-09-30T09:11:15.364Z,99400.31
2022-09-30T09:13:51.847Z,99404.09
2022-09-30T09:16:28.255Z,99407.63
2022-09-30T09:19:05.011Z,99414.09
2022-09-30T09:21:48.306Z,99410.53
2022-09-30T09:24:21.466Z,99412.63
2022-09-30T09:26:50.849Z,99412.41
2022-09-30T09:29:33.619Z,99415.84
2022-09-30T09:32:03.483Z,99408.88
2022-09-30T09:34:35.847Z,99412.53
2022-09-30T09:37:18.586Z,99421.16
2022-09-30T09:40:13.157Z,99414.06
2022-09-30T09:42:56.424Z,99412.72
2022-09-30T09:45:30.375Z,99417.78
2022-09-30T09:48:00.158Z,99420.94
2022-09-30T09:50:36.721Z,99415.09
2022-09-30T09:53:21.889Z,99408.06
2022-09-30T09:55:57.224Z,99413.09
2022-09-30T09:58:25.928Z,99406.63
2022-09-30T10:01:13.861Z,99405.72
2022-09-30T10:03:42.843Z,99403.28
2022-09-30T10:06:12.933Z,99403.72
2022-09-30T10:08:53.634Z,99402.13
2022-09-30T10:11:25.840Z,99401.09
2022-09-30T10:13:58.153Z,99401.72
2022-09-30T10:16:35.497Z,99400.81
2022-09-30T10:19:09.519Z,99392.88
2022-09-30T10:21:37.815Z,99392.06
2022-09-30T10:24:26.565Z,99392.63
2022-09-30T10:26:56.912Z,99390.16
2022-09-30T10:29:30.079Z,99393.13
2022-09-30T10:31:59.987Z,99387.75
2022-09-30T10:34:32.028Z,99376.22
2022-09-30T10:37:03.184Z,99385.66
2022-09-30T10:39:34.012Z,99384.16
2022-09-30T10:42:07.360Z,99382.16
2022-09-30T10:44:43.750Z,99382.00
2022-09-30T10:47:18.116Z,99383.41
2022-09-30T10:49:49.956Z,99380.34
2022-09-30T10:52:20.330Z,99367.53
2022-09-30T10:54:51.446Z,99364.28
2022-09-30T10:57:24.605Z,99367.41
2022-09-30T10:59:56.326Z,99366.06
2022-09-30T11:02:30.925Z,99362.34
2022-09-30T11:05:06.956Z,99361.25
2022-09-30T11:07:41.271Z,99355.88
2022-09-30T11:10:32.993Z,99364.84
2022-09-30T11:13:08.674Z,99365.16
2022-09-30T11:15:46.313Z,99355.09
2022-09-30T11:18:20.479Z,99353.56
2022-09-30T11:20:55.114Z,99356.19
2022-09-30T11:23:30.644Z,99355.72
2022-09-30T11:26:04.376Z,99356.50
2022-09-30T11:28:48.416Z,99343.03
2022-09-30T11:31:26.566Z,99355.72
2022-09-30T11:34:09.517Z,99349.69
2022-09-30T11:36:44.177Z,99341.19
2022-09-30T11:39:33.205Z,99344.59
2022-09-30T11:42:11.131Z,99340.72
2022-09-30T11:44:44.422Z,99343.66
2022-09-30T11:47:30.525Z,99340.25
2022-09-30T11:50:20.307Z,99332.84
2022-09-30T11:53:01.407Z,99340.44
2022-09-30T11:55:54.608Z,99335.00
2022-09-30T11:58:42.766Z,99340.13
2022-09-30T12:01:22.531Z,99337.03
2022-09-30T12:04:00.029Z,99335.00
2022-09-30T12:06:35.013Z,99338.34
2022-09-30T12:09:15.466Z,99333.50
2022-09-30T12:11:50.827Z,99340.28
2022-09-30T12:14:24.707Z,99335.94
2022-09-30T12:16:56.818Z,99336.44
2022-09-30T12:19:31.292Z,99339.50
2022-09-30T12:22:06.950Z,99344.16
2022-09-30T12:24:39.110Z,99346.13
2022-09-30T12:27:16.832Z,99343.50
2022-09-30T12:30:11.761Z,99342.75
2022-09-30T12:33:15.916Z,99339.63
2022-09-30T12:36:09.148Z,99340.25
2022-09-30T12:38:58.955Z,99341.34
2022-09-30T12:41:51.153Z,99344.25
2022-09-30T12:44:45.715Z,99337.56
2022-09-30T12:47:38.875Z,99335.56
2022-09-30T12:50:10.364Z,99342.78
2022-09-30T12:52:39.582Z,99335.84
2022-09-30T12:55:11.978Z,99339.88
2022-09-30T12:57:42.967Z,99336.22
2022-09-30T13:00:18.245Z,99343.63
2022-09-30T13:02:50.690Z,99341.28
2022-09-30T13:05:58.184Z,99339.25
2022-09-30T13:08:50.700Z,99343.75
2022-09-30T13:11:33.310Z,99338.88
2022-09-30T13:14:14.884Z,99339.78
2022-09-30T13:17:03.098Z,99342.09
2022-09-30T13:19:37.546Z,99337.28
2022-09-30T13:22:54.463Z,99338.66
2022-09-30T13:25:23.902Z,99345.00
2022-09-30T13:27:55.634Z,99345.00
2022-09-30T13:30:43.131Z,99356.13
2022-09-30T13:33:32.953Z,99351.22
2022-09-30T13:36:10.304Z,99352.66
2022-09-30T13:38:41.588Z,99352.28
2022-09-30T13:41:19.185Z,99352.16
2022-09-30T13:43:53.749Z,99348.41
2022-09-30T13:46:35.715Z,99350.09
2022-09-30T13:49:12.342Z,99358.16
2022-09-30T13:51:41.797Z,99358.47
2022-09-30T13:54:18.266Z,99355.75
2022-09-30T13:56:48.444Z,99363.16
2022-09-30T13:59:32.161Z,99357.94
2022-09-30T14:02:22.301Z,99355.78
2022-09-30T14:05:29.026Z,99361.41
2022-09-30T14:08:17.078Z,99360.63
2022-09-30T14:11:00.914Z,99365.13
2022-09-30T14:13:51.185Z,99372.91
2022-09-30T14:16:58.628Z,99373.53
2022-09-30T14:19:47.689Z,99378.81
2022-09-30T14:22:18.939Z,99370.44
2022-09-30T14:24:47.392Z,99372.59
2022-09-30T14:27:45.514Z,99373.03
2022-09-30T14:30:20.474Z,99381.84
2022-09-30T14:32:50.906Z,99383.41
2022-09-30T14:38:17.371Z,99388.72
2022-09-30T14:40:52.226Z,99383.19
2022-09-30T14:43:24.554Z,99385.38
2022-09-30T14:46:00.291Z,99383.69
2022-09-30T14:48:32.867Z,99382.16
2022-09-30T14:51:05.784Z,99386.66
2022-09-30T14:53:35.987Z,99383.91
2022-09-30T14:56:21.925Z,99391.31
2022-09-30T14:58:52.532Z,99392.41
2022-09-30T15:01:26.212Z,99393.34
2022-09-30T15:03:58.354Z,99394.44
2022-09-30T15:06:31.484Z,99393.06
2022-09-30T15:09:05.757Z,99393.84
2022-09-30T15:11:39.550Z,99393.66
2022-09-30T15:14:15.317Z,99399.53
2022-09-30T15:16:49.386Z,99400.31
2022-09-30T15:19:21.610Z,99400.00
2022-09-30T15:21:51.218Z,99406.00
2022-09-30T15:24:21.857Z,99399.84
2022-09-30T15:26:52.579Z,99407.13
2022-09-30T15:29:21.013Z,99407.13
2022-09-30T15:31:57.502Z,99410.06
2022-09-30T15:34:28.818Z,99407.44
2022-09-30T15:37:06.597Z,99404.38
2022-09-30T15:39:55.329Z,99407.59
2022-09-30T15:42:36.613Z,99410.25
2022-09-30T15:45:09.287Z,99419.50
2022-09-30T15:47:55.895Z,99416.59
2022-09-30T15:50:41.604Z,99414.41
2022-09-30T15:53:21.432Z,99425.69
2022-09-30T15:55:55.778Z,99425.19
2022-09-30T15:58:38.171Z,99434.31
2022-09-30T16:01:19.663Z,99435.53
2022-09-30T16:03:56.787Z,99432.09
2022-09-30T16:06:29.695Z,99434.22
2022-09-30T16:09:08.979Z,99451.28
2022-09-30T16:11:41.151Z,99454.94
2022-09-30T16:14:11.555Z,99456.59
2022-09-30T16:16:40.513Z,99452.22
2022-09-30T16:19:18.544Z,99457.38
2022-09-30T16:21:51.318Z,99458.88
2022-09-30T16:24:50.906Z,99465.59
2022-09-30T16:27:37.298Z,99466.75
2022-09-30T16:30:09.717Z,99469.75
2022-09-30T16:32:42.025Z,99472.16
2022-09-30T16:35:19.934Z,99471.66
2022-09-30T16:37:48.899Z,99471.13
2022-09-30T16:40:23.709Z,99464.25
2022-09-30T16:42:54.950Z,99469.75
2022-09-30T16:45:23.682Z,99476.72
2022-09-30T16:47:51.952Z,99476.59
2022-09-30T16:50:27.233Z,99477.28
2022-09-30T16:52:56.424Z,99473.97
2022-09-30T16:55:25.742Z,99480.19
2022-09-30T16:58:06.735Z,99477.31
2022-09-30T17:00:36.081Z,99468.13
2022-09-30T17:03:04.152Z,99471.91
2022-09-30T17:05:33.613Z,99476.09
2022-09-30T17:08:02.307Z,99482.94
2022-09-30T17:10:32.475Z,99490.69
2022-09-30T17:13:01.881Z,99494.44
2022-09-30T17:15:31.162Z,99503.28
2022-09-30T17:17:59.787Z,99497.97
2022-09-30T17:20:28.065Z,99491.88
2022-09-30T17:22:57.458Z,99499.94
2022-09-30T17:25:25.422Z,99510.00
2022-09-30T17:27:54.373Z,99510.94
2022-09-30T17:30:22.510Z,99516.25
2022-09-30T17:32:50.590Z,99516.81
2022-09-30T17:35:18.997Z,99524.78
2022-09-30T17:37:48.009Z,99534.75
2022-09-30T17:40:35.394Z,99548.91
2022-09-30T17:43:11.081Z,99545.47
2022-09-30T17:45:41.567Z,99555.53
2022-09-30T17:48:10.403Z,99560.81
2022-09-30T17:50:39.729Z,99562.88
2022-09-30T17:53:08.002Z,99563.31
2022-09-30T17:55:37.499Z,99569.63
2022-09-30T17:58:05.507Z,99563.63
2022-09-30T18:00:33.987Z,99573.06
2022-09-30T18:03:02.895Z,99576.06
2022-09-30T18:05:32.009Z,99572.53
2022-09-30T18:08:01.185Z,99577.63
2022-09-30T18:10:29.531Z,99583.16
2022-09-30T18:12:59.991Z,99579.94
2022-09-30T18:15:28.291Z,99585.31
2022-09-30T18:17:56.820Z,99593.00
2022-09-30T18:20:25.703Z,99597.00
2022-09-30T18:22:54.114Z,99594.84
2022-09-30T18:25:23.404Z,99594.66
2022-09-30T18:27:54.996Z,99595.44
2022-09-30T18:30:25.088Z,99595.53
2022-09-30T18:32:55.662Z,99600.69
2022-09-30T18:35:25.768Z,99595.25
2022-09-30T18:37:56.856Z,99597.84
2022-09-30T18:40:27.388Z,99603.88
2022-09-30T18:42:58.692Z,99598.50
2022-09-30T18:45:33.738Z,99605.72
2022-09-30T18:48:02.297Z,99615.59
2022-09-30T18:50:31.089Z,99612.09
2022-09-30T18:53:05.648Z,99626.78
2022-09-30T18:55:39.249Z,99622.88
2022-09-30T18:58:07.679Z,99630.81
2022-09-30T19:00:38.794Z,99634.94
2022-09-30T19:03:11.102Z,99633.47
2022-09-30T19:05:39.700Z,99633.50
2022-09-30T19:08:08.663Z,99636.00
2022-09-30T19:10:41.503Z,99647.19
2022-09-30T19:13:10.700Z,99650.81
2022-09-30T19:15:40.842Z,99649.88
2022-09-30T19:18:10.550Z,99649.16
2022-09-30T19:20:38.609Z,99664.88
2022-09-30T19:23:10.699Z,99663.19
2022-09-30T19:25:39.996Z,99665.66
2022-09-30T19:28:08.114Z,99673.13
2022-09-30T19:30:39.927Z,99670.47
2022-09-30T19:33:09.897Z,99669.81
2022-09-30T19:35:40.936Z,99665.22
2022-09-30T19:38:09.407Z,99670.03
2022-09-30T19:40:37.699Z,99679.59
2022-09-30T19:43:08.218Z,99675.06
2022-09-30T19:45:36.324Z,99677.53
2022-09-30T19:48:04.339Z,99679.16
2022-09-30T19:50:36.914Z,99680.47
2022-09-30T19:53:04.935Z,99683.31
2022-09-30T19:55:45.253Z,99685.69
2022-09-30T19:58:17.050Z,99690.13
2022-09-30T20:00:47.033Z,99695.53
2022-09-30T20:03:15.366Z,99688.47
2022-09-30T20:05:44.872Z,99685.84
2022-09-30T20:08:12.860Z,99678.81
2022-09-30T20:10:40.974Z,99675.75
2022-09-30T20:13:09.167Z,99663.47
2022-09-30T20:15:53.259Z,99662.38
2022-09-30T20:18:21.995Z,99667.25
2022-09-30T20:20:52.943Z,99667.75
2022-09-30T20:23:20.914Z,99664.69
2022-09-30T20:25:49.516Z,99673.41
2022-09-30T20:28:17.536Z,99683.50
2022-09-30T20:30:46.055Z,99680.44
2022-09-30T20:33:16.528Z,99685.59
2022-09-30T20:35:44.984Z,99670.44
2022-09-30T20:38:17.552Z,99676.06
2022-09-30T20:40:46.129Z,99686.81
2022-09-30T20:43:14.816Z,99682.59
2022-09-30T20:45:42.878Z,99683.50
2022-09-30T20:48:10.904Z,99687.84
2022-09-30T20:50:43.538Z,99700.09
2022-09-30T20:53:14.823Z,99700.97
2022-09-30T20:55:44.586Z,99707.31
2022-09-30T20:58:13.912Z,99702.59
2022-09-30T21:00:44.012Z,99716.84
2022-09-30T21:03:15.321Z,99718.09
2022-09-30T21:05:54.637Z,99713.88
2022-09-30T21:08:24.455Z,99709.59
2022-09-30T21:10:52.859Z,99710.81
2022-09-30T21:13:20.906Z,99721.09
2022-09-30T21:15:48.923Z,99727.41
2022-09-30T21:18:16.919Z,99717.53
2022-09-30T21:20:45.286Z,99714.00
2022-09-30T21:23:17.214Z,99728.53
2022-09-30T21:25:49.171Z,99732.13
2022-09-30T21:28:17.292Z,99725.47
2022-09-30T21:30:45.284Z,99724.34
2022-09-30T21:33:13.289Z,99728.34
2022-09-30T21:35:41.521Z,99731.53
2022-09-30T21:38:09.534Z,99715.03
2022-09-30T21:40:39.043Z,99713.81
2022-09-30T21:43:08.556Z,99709.53
2022-09-30T21:45:36.681Z,99714.22
2022-09-30T21:48:06.966Z,99712.72
2022-09-30T21:50:35.945Z,99722.16
2022-09-30T21:53:04.648Z,99717.53
2022-09-30T21:55:34.659Z,99717.53
2022-09-30T21:58:02.795Z,99721.44
2022-09-30T22:00:32.164Z,99724.19
2022-09-30T22:03:00.543Z,99714.06
2022-09-30T22:05:28.573Z,99712.94
2022-09-30T22:07:58.505Z,99719.63
2022-09-30T22:10:26.673Z,99725.56
2022-09-30T22:12:54.700Z,99727.19
2022-09-30T22:15:22.696Z,99731.94
2022-09-30T22:17:53.722Z,99737.81
2022-09-30T22:20:22.310Z,99737.44
2022-09-30T22:22:51.273Z,99739.06
2022-09-30T22:25:20.571Z,99743.38
2022-09-30T22:27:48.769Z,99744.97
2022-09-30T22:30:17.024Z,99745.78
2022-09-30T22:32:45.136Z,99752.44
2022-09-30T22:35:32.174Z,99756.41
2022-09-30T22:38:17.239Z,99761.91
2022-09-30T22:40:45.735Z,99767.81
2022-09-30T22:43:13.848Z,99761.16
2022-09-30T22:45:44.177Z,99771.41
2022-09-30T22:48:12.174Z,99777.72
2022-09-30T22:50:41.548Z,99788.69
2022-09-30T22:53:09.606Z,99803.97
2022-09-30T22:55:38.140Z,99809.06
2022-09-30T22:58:07.079Z,99813.41
2022-09-30T23:00:35.103Z,99828.31
2022-09-30T23:03:03.738Z,99828.72
2022-09-30T23:05:31.698Z,99823.22
2022-09-30T23:08:01.225Z,99820.91
2022-09-30T23:10:29.447Z,99827.59
2022-09-30T23:12:57.827Z,99837.78
2022-09-30T23:15:26.030Z,99841.38
2022-09-30T23:17:54.157Z,99842.13
2022-09-30T23:20:22.222Z,99838.22
2022-09-30T23:22:50.224Z,99833.13
2022-09-30T23:25:19.652Z,99831.53
2022-09-30T23:27:49.110Z,99832.31
2022-09-30T23:30:17.533Z,99827.22
2022-09-30T23:32:45.621Z,99829.19
2022-09-30T23:35:14.197Z,99835.44
2022-09-30T23:37:42.232Z,99842.50
2022-09-30T23:40:11.142Z,99837.41
2022-09-30T23:42:40.496Z,99835.84
2022-09-30T23:45:10.045Z,99840.94
2022-09-30T23:47:38.245Z,99834.25
2022-09-30T23:50:10.700Z,99826.44
2022-09-30T23:52:38.701Z,99828.38
2022-09-30T23:55:07.769Z,99823.28
2022-09-30T23:57:36.350Z,99817.41
